Latest Weather Observations for Point Fawcett

IDD60801

Issued at 11:31 pm CST Sunday 15 September 2019 (issued every 10 minutes, with the page automatically refreshed every 10 minutes)

About weather observations | Map of weather stations | Latest weather observations for NT | Other Formats
Station Details ID: 200731 Name: POINT FAWCETT Lat: -11.76 Lon: 130.03 Height: 6.5 m
Data from the previous 72 hours. | See also: Recent months at Point Fawcett
Date/Time
CST
Temp
°C
App
Temp
°C
Dew
Point
°C
Rel
Hum
%
Delta-T
°C
Wind Press
QNH
hPa
Press
MSL
hPa
Rain since
9am
mm
Dir  Spd
km/h
Gust
km/h
Spd
kts
Gust
kts
15/11:30pm 21.9 23.3 17.3 75 2.8 SW 6 15 3 8 1015.2 - 0.0
15/11:00pm 22.9 24.5 17.8 73 3.2 SE 6 7 3 4 1015.1 - 0.0
15/10:30pm 23.3 24.8 17.7 71 3.5 SSE 6 11 3 6 1015.0 - 0.0
15/10:00pm 24.0 25.6 18.2 70 3.6 S 7 17 4 9 1014.9 - 0.0
15/09:30pm 24.5 24.8 18.7 70 3.7 ENE 15 24 8 13 1014.4 - 0.0
15/09:00pm 24.7 24.9 18.6 69 3.9 NE 15 26 8 14 1014.3 1014.2 0.0
15/08:30pm 25.1 25.0 17.8 64 4.6 NE 15 24 8 13 1014.1 - 0.0
15/08:00pm 25.7 25.0 16.5 56 5.7 NE 15 24 8 13 1013.8 - 0.0
15/07:30pm 26.6 25.5 15.3 50 6.9 NE 15 24 8 13 1013.4 - 0.0
15/07:00pm 27.6 25.9 12.4 39 8.8 ENE 13 19 7 10 1012.8 - 0.0
15/06:30pm 28.5 27.2 11.1 34 9.9 ENE 9 15 5 8 1012.6 - 0.0
15/06:00pm 29.8 27.6 10.9 31 10.8 ENE 13 19 7 10 1012.5 1012.4 0.0
15/05:30pm 30.2 27.6 10.7 30 11.2 NE 15 24 8 13 1012.5 - 0.0
15/05:00pm 30.8 26.5 7.9 24 12.6 ENE 20 33 11 18 1012.5 - 0.0
15/04:30pm 31.8 26.6 5.3 19 14.0 E 22 39 12 21 1012.4 - 0.0
15/04:00pm 31.6 25.8 4.4 18 14.1 E 24 39 13 21 1012.5 - 0.0
15/03:30pm 32.3 28.0 7.2 21 13.7 E 19 35 10 19 1012.5 - 0.0
15/03:00pm 31.9 27.9 8.2 23 13.1 E 19 33 10 18 1012.6 1012.5 0.0
15/02:30pm 31.4 28.0 10.7 28 11.9 ENE 19 32 10 17 1012.8 - 0.0
15/02:00pm 30.8 27.7 10.2 28 11.7 E 17 32 9 17 1013.2 - 0.0
15/01:30pm 30.5 26.9 10.5 29 11.4 ESE 20 37 11 20 1013.6 - 0.0
15/01:00pm 30.7 27.4 11.6 31 11.1 E 20 35 11 19 1014.2 - 0.0
15/12:30pm 30.2 26.3 10.7 30 11.2 E 22 39 12 21 1014.4 - 0.0
15/12:00pm 30.4 26.5 10.9 30 11.2 ESE 22 43 12 23 1014.6 1014.5 0.0
15/11:30am 30.7 28.1 10.6 29 11.5 ESE 15 28 8 15 1015.1 - 0.0
15/11:00am 30.7 27.0 9.6 27 11.9 SE 19 37 10 20 1015.6 - 0.0
15/10:30am 29.4 26.9 11.0 32 10.5 ESE 15 32 8 17 1015.7 - 0.0
15/10:00am 29.2 28.5 16.4 46 8.0 SE 15 26 8 14 1016.0 - 0.0
15/09:30am 28.3 28.9 17.8 53 6.7 ESE 11 20 6 11 1016.4 - 0.0
15/09:00am 27.4 29.8 20.0 64 4.8 ESE 7 13 4 7 1016.6 1016.5 0.0
15/08:30am 25.8 27.4 19.2 67 4.2 E 9 15 5 8 1016.7 - 0.0
15/08:00am 24.5 26.3 19.6 74 3.2 ENE 9 13 5 7 1016.6 - 0.0
15/07:30am 22.2 24.3 19.4 84 1.8 E 7 11 4 6 1016.4 - 0.0
15/07:00am 20.8 22.0 18.2 85 1.6 E 9 11 5 6 1016.1 - 0.0
15/06:30am 21.3 22.7 18.7 85 1.6 E 9 13 5 7 1015.8 - 0.0
15/06:00am 20.0 21.5 18.0 88 1.2 E 7 11 4 6 1015.7 1015.6 0.0
15/05:30am 19.5 20.5 16.9 85 1.6 E 7 11 4 6 1015.4 - 0.0
15/05:00am 19.8 20.6 17.4 86 1.5 E 9 11 5 6 1015.2 - 0.0
15/04:30am 18.9 19.5 15.8 82 1.8 E 7 9 4 5 1015.2 - 0.0
15/04:00am 19.9 20.6 16.0 78 2.3 E 7 9 4 5 1015.1 - 0.0
15/03:30am 21.0 22.2 17.4 80 2.2 ESE 7 11 4 6 1015.2 - 0.0
15/03:00am 20.8 21.6 17.4 81 2.1 E 9 13 5 7 1015.2 1015.1 0.0
15/02:30am 19.6 20.4 17.2 86 1.5 ESE 9 11 5 6 1015.2 - 0.0
15/02:00am 18.5 19.0 15.6 83 1.7 ESE 7 9 4 5 1015.1 - 0.0
15/01:30am 19.0 19.2 15.7 81 2.0 ESE 9 13 5 7 1015.0 - 0.0
15/01:00am 19.4 19.9 15.5 78 2.3 ESE 7 11 4 6 1015.1 - 0.0
15/12:30am 21.0 21.8 16.4 75 2.8 S 7 11 4 6 1015.2 - 0.0
15/12:00am 21.2 21.4 16.8 76 2.7 S 11 19 6 10 1015.2 1015.1 0.0
 
Date/Time
CST
Temp
°C
App
Temp
°C
Dew
Point
°C
Rel
Hum
%
Delta-T
°C
Wind Press
QNH
hPa
Press
MSL
hPa
Rain since
9am
mm
Dir  Spd
km/h
Gust
km/h
Spd
kts
Gust
kts
14/11:30pm 22.4 23.3 16.7 70 3.5 ENE 7 9 4 5 1014.6 - 0.0
14/11:00pm 23.5 24.4 17.5 69 3.7 ENE 9 13 5 7 1014.8 - 0.0
14/10:30pm 23.0 24.1 17.2 70 3.6 ENE 7 13 4 7 1014.8 - 0.0
14/10:00pm 23.0 23.7 16.1 65 4.2 ENE 7 11 4 6 1015.0 - 0.0
14/09:30pm 24.5 25.2 17.0 63 4.6 ENE 9 15 5 8 1014.8 - 0.0
14/09:00pm 25.2 25.5 16.9 60 5.1 NE 11 19 6 10 1014.4 1014.3 0.0
14/08:30pm 25.6 25.9 17.0 59 5.3 NE 11 17 6 9 1014.2 - 0.0
14/08:00pm 26.2 26.0 16.7 56 5.9 NE 13 20 7 11 1014.1 - 0.0
14/07:30pm 26.4 25.9 16.0 52 6.4 NE 13 17 7 9 1014.0 - 0.0
14/07:00pm 26.8 27.4 17.6 57 5.8 NNE 11 17 6 9 1013.7 - 0.0
14/06:30pm 27.9 28.1 18.6 57 6.0 N 15 20 8 11 1013.4 - 0.0
14/06:00pm 29.7 28.9 11.7 33 10.4 E 7 15 4 8 1013.3 1013.2 0.0
14/05:30pm 30.5 28.9 11.5 31 11.0 ESE 11 19 6 10 1013.3 - 0.0
14/05:00pm 31.0 29.0 11.4 30 11.4 E 13 26 7 14 1013.1 - 0.0
14/04:30pm 31.0 27.7 10.9 29 11.6 E 19 33 10 18 1013.0 - 0.0
14/04:00pm 31.2 28.2 10.5 28 11.9 E 17 32 9 17 1013.0 - 0.0
14/03:30pm 31.1 27.3 11.0 29 11.6 E 22 39 12 21 1013.0 - 0.0
14/03:00pm 31.6 28.6 11.9 30 11.6 ESE 19 39 10 21 1013.2 1013.1 0.0
14/02:30pm 31.1 27.9 12.0 31 11.2 ESE 20 35 11 19 1013.5 - 0.0
14/02:00pm 30.6 27.0 10.5 29 11.5 ESE 20 35 11 19 1013.9 - 0.0
14/01:30pm 30.9 26.6 9.2 26 12.2 ESE 22 41 12 22 1014.4 - 0.0
14/01:00pm 30.7 26.3 9.0 26 12.1 ESE 22 43 12 23 1015.0 - 0.0
14/12:35pm 29.5 23.2 7.4 25 11.9 E 30 48 16 26 1015.7 - 0.0
14/12:30pm 29.7 23.1 7.6 25 12.0 E 32 48 17 26 1015.7 - 0.0
14/12:00pm 29.6 24.7 11.2 32 10.6 E 28 46 15 25 1016.0 1015.9 0.0
14/11:35am 29.3 24.4 11.4 33 10.3 E 28 46 15 25 1016.4 - 0.0
14/11:30am 29.6 24.7 11.2 32 10.6 E 28 44 15 24 1016.4 - 0.0
14/11:00am 29.0 23.9 10.6 32 10.5 E 28 46 15 25 1016.8 - 0.0
14/10:33am 28.6 23.6 10.8 33 10.1 E 28 54 15 29 1017.3 - 0.0
14/10:30am 28.9 24.3 11.0 33 10.2 E 26 54 14 29 1017.3 - 0.0
14/10:24am 28.5 23.4 10.7 33 10.1 ESE 28 48 15 26 1017.5 - 0.0
14/10:00am 28.8 26.5 11.8 35 9.8 ESE 15 26 8 14 1017.5 - 0.0
14/09:30am 28.2 27.8 17.1 51 7.0 E 15 30 8 16 1017.7 - 0.0
14/09:00am 26.7 28.0 19.3 64 4.8 ENE 11 17 6 9 1017.7 1017.6 0.0
14/08:30am 25.3 26.9 19.9 72 3.5 E 11 17 6 9 1017.8 - 0.0
14/08:00am 23.7 25.5 19.6 78 2.6 ESE 9 13 5 7 1017.8 - 0.0
14/07:30am 21.9 24.0 19.3 85 1.7 E 7 11 4 6 1017.5 - 0.0
14/07:00am 21.5 23.0 18.9 85 1.6 E 9 15 5 8 1017.0 - 0.0
14/06:30am 21.3 22.3 18.7 85 1.6 E 11 17 6 9 1016.7 - 0.0
14/06:00am 21.1 22.0 18.5 85 1.6 E 11 17 6 9 1016.4 1016.3 0.0
14/05:30am 20.9 21.8 18.3 85 1.6 E 11 13 6 7 1016.1 - 0.0
14/05:00am 20.7 21.8 17.9 84 1.7 E 9 15 5 8 1015.9 - 0.0
14/04:30am 20.6 21.6 17.8 84 1.7 E 9 13 5 7 1015.7 - 0.0
14/04:00am 20.5 21.4 17.5 83 1.8 E 9 11 5 6 1015.6 - 0.0
14/03:30am 21.0 22.0 17.8 82 2.0 E 9 11 5 6 1015.7 - 0.0
14/03:00am 21.3 22.2 18.3 83 1.9 E 11 15 6 8 1015.9 1015.8 0.0
14/02:30am 21.3 22.8 19.0 87 1.5 E 9 13 5 7 1016.0 - 0.0
14/02:00am 18.4 18.6 15.8 85 1.5 ESE 9 11 5 6 1016.2 - 0.0
14/01:30am 18.3 18.4 15.6 84 1.6 ESE 9 11 5 6 1016.3 - 0.0
14/01:00am 18.3 18.7 15.2 82 1.8 ESE 7 9 4 5 1016.2 - 0.0
14/12:30am 18.6 18.7 14.5 77 2.4 ESE 7 7 4 4 1016.3 - 0.0
14/12:00am 19.7 20.2 14.9 74 2.8 SE 6 9 3 5 1016.3 1016.2 0.0
 
Date/Time
CST
Temp
°C
App
Temp
°C
Dew
Point
°C
Rel
Hum
%
Delta-T
°C
Wind Press
QNH
hPa
Press
MSL
hPa
Rain since
9am
mm
Dir  Spd
km/h
Gust
km/h
Spd
kts
Gust
kts
13/11:30pm 22.3 23.9 16.8 71 3.4 NNE 4 9 2 5 1016.1 - 0.0
13/11:00pm 23.2 23.7 17.4 70 3.6 S 11 17 6 9 1016.0 - 0.0
13/10:30pm 23.8 24.7 18.4 72 3.4 NE 11 17 6 9 1015.4 - 0.0
13/10:00pm 23.4 24.0 17.8 71 3.5 NE 11 15 6 8 1015.3 - 0.0
13/09:30pm 21.8 22.1 16.1 70 3.4 NE 9 13 5 7 1015.0 - 0.0
13/09:00pm 21.0 20.0 12.4 58 4.8 ENE 9 11 5 6 1014.9 1014.8 0.0
13/08:30pm 22.6 21.4 11.7 50 6.1 ENE 9 11 5 6 1014.8 - 0.0
13/08:00pm 21.4 19.9 10.6 50 5.9 E 9 11 5 6 1014.6 - 0.0
13/07:30pm 23.8 22.7 10.8 44 7.2 E 7 9 4 5 1014.4 - 0.0
13/07:00pm 26.2 24.7 10.4 37 8.8 E 9 13 5 7 1014.1 - 0.0
13/06:30pm 27.9 25.7 9.2 31 10.3 ESE 11 19 6 10 1013.9 - 0.0
13/06:00pm 29.1 25.1 6.5 24 12.0 ESE 17 28 9 15 1013.7 1013.6 0.0
13/05:30pm 30.4 25.3 0.9 15 14.3 ESE 17 28 9 15 1013.6 - 0.0
13/05:00pm 30.4 25.8 5.6 21 13.1 ESE 19 33 10 18 1013.6 - 0.0
13/04:30pm 31.6 27.7 7.3 22 13.2 ESE 17 28 9 15 1013.5 - 0.0
13/04:00pm 32.0 27.4 -0.9 12 15.7 SE 13 30 7 16 1013.5 - 0.0
13/03:30pm 31.6 27.0 1.8 15 14.8 SE 15 30 8 16 1013.8 - 0.0
13/03:00pm 31.8 27.4 4.6 18 14.2 ESE 17 33 9 18 1014.3 1014.2 0.0
13/02:30pm 30.9 26.0 6.7 22 13.0 E 22 37 12 20 1014.5 - 0.0
13/02:00pm 32.7 29.1 8.2 22 13.6 ESE 17 28 9 15 1015.0 - 0.0
13/01:30pm 31.8 27.3 6.8 21 13.5 ESE 20 41 11 22 1015.4 - 0.0
13/01:00pm 30.6 25.0 7.1 23 12.7 ESE 26 48 14 26 1015.9 - 0.0
13/12:58pm 30.6 24.5 6.5 22 12.9 E 28 50 15 27 1016.0 - 0.0
13/12:30pm 30.8 26.7 8.5 25 12.3 ESE 20 39 11 21 1016.5 - 0.0
13/12:00pm 30.9 29.1 13.2 34 10.6 ESE 15 32 8 17 1017.1 1017.0 0.0
13/11:30am 30.7 27.9 12.6 33 10.7 E 19 32 10 17 1017.4 - 0.0
13/11:00am 30.4 26.9 12.3 33 10.6 E 22 35 12 19 1017.7 - 0.0
13/10:30am 28.9 26.2 12.8 37 9.5 ESE 19 33 10 18 1018.0 - 0.0
13/10:00am 28.6 26.8 14.4 41 8.6 ESE 17 28 9 15 1018.2 - 0.0
13/09:30am 27.8 28.2 17.3 52 6.6 E 11 17 6 9 1018.3 - 0.0
13/09:00am 27.1 28.2 18.1 58 5.7 E 9 15 5 8 1018.3 1018.2 0.0
13/08:30am 25.4 26.3 18.3 65 4.5 ENE 11 17 6 9 1018.2 - 0.0
13/08:00am 23.7 25.3 19.2 76 2.9 E 9 13 5 7 1018.1 - 0.0
13/07:30am 21.3 22.8 19.0 87 1.5 E 9 13 5 7 1017.9 - 0.0
13/07:00am 19.4 20.3 17.5 89 1.2 E 9 11 5 6 1017.3 - 0.0
13/06:30am 18.8 19.4 15.9 83 1.7 E 7 9 4 5 1016.9 - 0.0
13/06:00am 21.0 22.4 17.8 82 2.0 E 7 11 4 6 1016.5 1016.4 0.0
13/05:30am 21.6 22.8 18.2 81 2.1 E 9 11 5 6 1016.4 - 0.0
13/05:00am 21.7 22.9 18.3 81 2.1 E 9 13 5 7 1016.2 - 0.0
13/04:30am 22.1 23.4 18.5 80 2.3 E 9 15 5 8 1016.1 - 0.0
13/04:00am 22.0 23.0 18.6 81 2.1 E 11 15 6 8 1016.3 - 0.0
13/03:30am 22.0 23.2 19.0 83 1.9 E 11 15 6 8 1016.4 - 0.0
13/03:00am 21.8 23.4 19.2 85 1.6 E 9 13 5 7 1016.4 1016.3 0.0
13/02:30am 21.2 22.7 18.8 86 1.5 ESE 9 13 5 7 1016.4 - 0.0
13/02:00am 20.3 21.5 18.2 88 1.3 ESE 9 13 5 7 1016.4 - 0.0
13/01:30am 19.6 20.5 17.6 88 1.2 ESE 9 13 5 7 1016.6 - 0.0
13/01:00am 18.6 19.0 16.4 87 1.3 ESE 9 11 5 6 1016.9 - 0.0
13/12:30am 17.9 17.9 15.3 85 1.5 E 9 9 5 5 1016.6 - 0.0
13/12:00am 18.2 18.6 15.3 83 1.7 ESE 7 9 4 5 1016.7 1016.6 0.0

Other formats

Comma delimited format used in spreadsheet applications
http://www.bom.gov.au/fwo/IDD60801/IDD60801.94122.axf

JavaScript Object Notation format (JSON) in row-major order
http://www.bom.gov.au/fwo/IDD60801/IDD60801.94122.json

Data quality

Most of these data are generated automatically and are frequently updated. Quality checks on data are not normally performed. It is possible for incorrect values to appear. Refer to information at About Latest Weather Observations and please check the disclaimer before using these data.